Station Historical Data
Daily Summary for July 15, 2012 Units:  English    Metric   Both
« Previous Day
Next Day »
Daily Weekly Monthly Yearly Custom
  High: Low: Average:
Temperature: 90.0 °F 70.2 °F 79 °F
Dew Point: 75.8 °F 67.8 °F 70.9 °F
Humidity: 92% 52% 78%
Wind Speed: 11.0mph 0.0mph 3mph
Wind Gust: 14.0mph - -
Wind- - SSE
Pressure: 30.13 in 29.99 in -
Precipitation: 0.00 in    
Historical Graphs
 
 
Tabular Data for July 15, 2012
Time Temperature Dew Point Pressure Wind Wind Speed Wind Gust Humidity Rainfall Rate (Hourly) Conditions
00:00 70.7 °F 68.3 °F 30.05 in ESE 2.0 mph 5.0 mph 92% 0.00 in
00:01 70.7 °F 68.3 °F 30.04 in SE 2.0 mph 5.0 mph 92% 0.00 in
00:06 70.6 °F 68.2 °F 30.04 in SE 3.0 mph 5.0 mph 92% 0.00 in
00:11 70.6 °F 68.2 °F 30.04 in ESE 4.0 mph 4.0 mph 92% 0.00 in
00:16 70.5 °F 68.1 °F 30.04 in ESE 4.0 mph 5.0 mph 92% 0.00 in
00:21 70.5 °F 68.1 °F 30.04 in SE 4.0 mph 4.0 mph 92% 0.00 in
00:26 70.5 °F 68.1 °F 30.04 in SE 4.0 mph 4.0 mph 92% 0.00 in
00:31 70.5 °F 68.1 °F 30.04 in SE 2.0 mph 4.0 mph 92% 0.00 in
00:36 70.5 °F 68.1 °F 30.03 in ESE 4.0 mph 4.0 mph 92% 0.00 in
00:41 70.5 °F 68.1 °F 30.03 in ESE 3.0 mph 4.0 mph 92% 0.00 in
00:46 70.5 °F 68.1 °F 30.03 in SE 4.0 mph 4.0 mph 92% 0.00 in
00:51 70.5 °F 68.1 °F 30.03 in SE 2.0 mph 4.0 mph 92% 0.00 in
00:56 70.5 °F 68.1 °F 30.03 in SE 3.0 mph 4.0 mph 92% 0.00 in
01:01 70.5 °F 68.1 °F 30.03 in SE 4.0 mph 4.0 mph 92% 0.00 in
01:06 70.6 °F 68.2 °F 30.03 in SE 4.0 mph 5.0 mph 92% 0.00 in
01:11 70.6 °F 68.2 °F 30.03 in SE 4.0 mph 5.0 mph 92% 0.00 in
01:16 70.6 °F 68.2 °F 30.03 in ESE 4.0 mph 5.0 mph 92% 0.00 in
01:21 70.6 °F 68.2 °F 30.03 in SE 3.0 mph 5.0 mph 92% 0.00 in
01:26 70.6 °F 68.2 °F 30.03 in ESE 4.0 mph 5.0 mph 92% 0.00 in
01:31 70.6 °F 68.2 °F 30.03 in ESE 4.0 mph 5.0 mph 92% 0.00 in
01:36 70.6 °F 68.2 °F 30.03 in SE 4.0 mph 5.0 mph 92% 0.00 in
01:41 70.7 °F 68.3 °F 30.03 in SE 3.0 mph 6.0 mph 92% 0.00 in
01:46 70.7 °F 68.3 °F 30.03 in SE 3.0 mph 4.0 mph 92% 0.00 in
01:51 70.7 °F 68.3 °F 30.03 in SE 3.0 mph 5.0 mph 92% 0.00 in
01:56 70.7 °F 68.3 °F 30.03 in SE 3.0 mph 4.0 mph 92% 0.00 in
02:01 70.7 °F 68.3 °F 30.03 in SE 3.0 mph 5.0 mph 92% 0.00 in
02:06 70.7 °F 68.3 °F 30.03 in ESE 3.0 mph 4.0 mph 92% 0.00 in
02:11 70.7 °F 68.3 °F 30.03 in ESE 3.0 mph 3.0 mph 92% 0.00 in
02:16 70.7 °F 68.3 °F 30.03 in ESE 2.0 mph 4.0 mph 92% 0.00 in
02:21 70.7 °F 68.3 °F 30.03 in SE 2.0 mph 4.0 mph 92% 0.00 in
02:26 70.7 °F 68.3 °F 30.03 in ESE 4.0 mph 5.0 mph 92% 0.00 in
02:31 70.7 °F 68.3 °F 30.03 in ESE 2.0 mph 3.0 mph 92% 0.00 in
02:36 70.6 °F 68.2 °F 30.03 in ESE 4.0 mph 4.0 mph 92% 0.00 in
02:41 70.6 °F 68.2 °F 30.02 in SE 3.0 mph 4.0 mph 92% 0.00 in
02:47 70.6 °F 68.2 °F 30.02 in ESE 4.0 mph 5.0 mph 92% 0.00 in
02:52 70.6 °F 68.2 °F 30.02 in SE 4.0 mph 5.0 mph 92% 0.00 in
02:56 70.6 °F 68.2 °F 30.02 in SE 4.0 mph 6.0 mph 92% 0.00 in
03:01 70.5 °F 68.1 °F 30.02 in SE 3.0 mph 5.0 mph 92% 0.00 in
03:07 70.5 °F 68.1 °F 30.02 in ESE 2.0 mph 5.0 mph 92% 0.00 in
03:11 70.4 °F 68.0 °F 30.02 in ESE 4.0 mph 4.0 mph 92% 0.00 in
03:17 70.4 °F 68.0 °F 30.02 in ESE 3.0 mph 6.0 mph 92% 0.00 in
03:22 70.3 °F 67.9 °F 30.02 in ESE 4.0 mph 5.0 mph 92% 0.00 in
03:27 70.3 °F 67.9 °F 30.02 in SE 3.0 mph 4.0 mph 92% 0.00 in
03:32 70.3 °F 67.9 °F 30.02 in SE 3.0 mph 4.0 mph 92% 0.00 in
03:37 70.3 °F 67.9 °F 30.02 in SE 5.0 mph 5.0 mph 92% 0.00 in
03:42 70.3 °F 67.9 °F 30.02 in SE 2.0 mph 5.0 mph 92% 0.00 in
03:47 70.4 °F 68.0 °F 30.02 in SE 3.0 mph 4.0 mph 92% 0.00 in
03:52 70.5 °F 68.1 °F 30.02 in SE 4.0 mph 5.0 mph 92% 0.00 in
03:57 70.5 °F 68.1 °F 30.02 in SE 4.0 mph 4.0 mph 92% 0.00 in
04:02 70.6 °F 68.2 °F 30.02 in ESE 2.0 mph 4.0 mph 92% 0.00 in
04:07 70.6 °F 68.2 °F 30.02 in ESE 2.0 mph 4.0 mph 92% 0.00 in
04:12 70.6 °F 68.2 °F 30.02 in SE 2.0 mph 3.0 mph 92% 0.00 in
04:17 70.6 °F 68.2 °F 30.02 in ESE 3.0 mph 3.0 mph 92% 0.00 in
04:22 70.6 °F 68.2 °F 30.02 in SE 1.0 mph 3.0 mph 92% 0.00 in
04:27 70.6 °F 68.2 °F 30.02 in ESE 2.0 mph 2.0 mph 92% 0.00 in
04:32 70.5 °F 68.1 °F 30.03 in ESE 1.0 mph 2.0 mph 92% 0.00 in
04:37 70.5 °F 68.1 °F 30.03 in SE 1.0 mph 2.0 mph 92% 0.00 in
04:42 70.5 °F 68.1 °F 30.03 in SE 1.0 mph 1.0 mph 92% 0.00 in
04:47 70.5 °F 68.1 °F 30.03 in Calm   1.0 mph 92% 0.00 in
04:52 70.4 °F 68.0 °F 30.03 in Calm     92% 0.00 in
04:57 70.4 °F 68.0 °F 30.03 in Calm     92% 0.00 in
05:02 70.3 °F 67.9 °F 30.04 in Calm     92% 0.00 in
05:07 70.2 °F 67.8 °F 30.04 in Calm   1.0 mph 92% 0.00 in
05:12 70.2 °F 67.8 °F 30.04 in Calm     92% 0.00 in
05:17 70.2 °F 67.8 °F 30.04 in Calm     92% 0.00 in
05:22 70.2 °F 67.8 °F 30.04 in Calm     92% 0.00 in
05:27 70.2 °F 67.8 °F 30.03 in East 1.0 mph 1.0 mph 92% 0.00 in
05:32 70.3 °F 67.9 °F 30.04 in East 1.0 mph 1.0 mph 92% 0.00 in
05:37 70.3 °F 67.9 °F 30.04 in ESE 1.0 mph 3.0 mph 92% 0.00 in
05:42 70.3 °F 67.9 °F 30.04 in ESE 1.0 mph 2.0 mph 92% 0.00 in
05:47 70.4 °F 68.0 °F 30.05 in Calm   1.0 mph 92% 0.00 in
05:52 70.4 °F 68.0 °F 30.05 in Calm   1.0 mph 92% 0.00 in
05:57 70.4 °F 68.0 °F 30.05 in ESE 2.0 mph 2.0 mph 92% 0.00 in
06:02 70.5 °F 68.1 °F 30.05 in Calm   1.0 mph 92% 0.00 in
06:07 70.5 °F 68.1 °F 30.05 in Calm   2.0 mph 92% 0.00 in
06:13 70.5 °F 68.1 °F 30.05 in Calm     92% 0.00 in
06:18 70.5 °F 68.1 °F 30.05 in Calm     92% 0.00 in
06:23 70.5 °F 68.1 °F 30.06 in Calm   1.0 mph 92% 0.00 in
06:28 70.5 °F 68.1 °F 30.06 in Calm   2.0 mph 92% 0.00 in
06:32 70.5 °F 68.1 °F 30.06 in Calm   1.0 mph 92% 0.00 in
06:38 70.4 °F 68.0 °F 30.07 in Calm   1.0 mph 92% 0.00 in
06:43 70.5 °F 68.1 °F 30.07 in ESE 1.0 mph 1.0 mph 92% 0.00 in
06:48 70.4 °F 68.0 °F 30.07 in Calm   1.0 mph 92% 0.00 in
06:53 70.4 °F 68.0 °F 30.07 in Calm   2.0 mph 92% 0.00 in
06:58 70.4 °F 68.0 °F 30.08 in East 1.0 mph 1.0 mph 92% 0.00 in
07:03 70.5 °F 68.1 °F 30.08 in Calm   1.0 mph 92% 0.00 in
07:08 70.5 °F 68.1 °F 30.08 in Calm   2.0 mph 92% 0.00 in
07:13 70.6 °F 68.2 °F 30.08 in East 1.0 mph 2.0 mph 92% 0.00 in
07:18 70.6 °F 68.2 °F 30.08 in East 1.0 mph 2.0 mph 92% 0.00 in
07:23 70.7 °F 68.3 °F 30.09 in ESE 2.0 mph 2.0 mph 92% 0.00 in
07:28 70.8 °F 68.4 °F 30.09 in ESE 3.0 mph 3.0 mph 92% 0.00 in
07:33 70.9 °F 68.5 °F 30.09 in ESE 3.0 mph 3.0 mph 92% 0.00 in
07:38 71.0 °F 68.6 °F 30.09 in ESE 4.0 mph 5.0 mph 92% 0.00 in
07:43 71.2 °F 68.8 °F 30.09 in ESE 4.0 mph 5.0 mph 92% 0.00 in
07:48 71.5 °F 69.1 °F 30.09 in East 3.0 mph 5.0 mph 92% 0.00 in
07:53 71.6 °F 69.2 °F 30.09 in ESE 2.0 mph 4.0 mph 92% 0.00 in
07:58 71.9 °F 69.4 °F 30.10 in SE 1.0 mph 4.0 mph 92% 0.00 in
08:03 72.3 °F 69.8 °F 30.10 in ESE 4.0 mph 5.0 mph 92% 0.00 in
08:08 72.6 °F 70.2 °F 30.10 in ESE 3.0 mph 3.0 mph 92% 0.00 in
08:13 73.1 °F 70.6 °F 30.10 in East 4.0 mph 4.0 mph 92% 0.00 in
08:18 73.4 °F 70.9 °F 30.10 in ESE 3.0 mph 4.0 mph 92% 0.00 in
08:23 73.5 °F 71.0 °F 30.10 in East 2.0 mph 3.0 mph 92% 0.00 in
08:28 73.5 °F 71.0 °F 30.10 in ESE 2.0 mph 4.0 mph 92% 0.00 in
08:33 73.5 °F 71.0 °F 30.11 in ESE 5.0 mph 5.0 mph 92% 0.00 in
08:38 73.6 °F 71.1 °F 30.10 in SE 2.0 mph 3.0 mph 92% 0.00 in
08:43 73.8 °F 71.3 °F 30.11 in ESE 1.0 mph 3.0 mph 92% 0.00 in
08:48 73.9 °F 71.4 °F 30.11 in ESE 3.0 mph 4.0 mph 92% 0.00 in
08:53 74.0 °F 71.5 °F 30.11 in ESE 3.0 mph 3.0 mph 92% 0.00 in
08:58 74.3 °F 71.8 °F 30.11 in ESE 4.0 mph 4.0 mph 92% 0.00 in
09:03 74.9 °F 72.4 °F 30.11 in ESE 2.0 mph 3.0 mph 92% 0.00 in
09:08 75.0 °F 72.5 °F 30.12 in SE 4.0 mph 4.0 mph 92% 0.00 in
09:13 75.0 °F 72.2 °F 30.12 in SE 2.0 mph 4.0 mph 91% 0.00 in
09:18 75.2 °F 72.4 °F 30.12 in ESE 3.0 mph 4.0 mph 91% 0.00 in
09:23 75.5 °F 72.7 °F 30.12 in ESE 6.0 mph 6.0 mph 91% 0.00 in
09:28 76.1 °F 73.3 °F 30.11 in SE 3.0 mph 6.0 mph 91% 0.00 in
09:33 76.6 °F 73.8 °F 30.12 in SE 3.0 mph 6.0 mph 91% 0.00 in
09:38 77.0 °F 73.8 °F 30.12 in SE 4.0 mph 7.0 mph 90% 0.00 in
09:43 77.3 °F 74.1 °F 30.12 in SE 3.0 mph 5.0 mph 90% 0.00 in
09:48 77.6 °F 74.4 °F 30.12 in SE 4.0 mph 5.0 mph 90% 0.00 in
09:54 77.9 °F 74.4 °F 30.12 in East 5.0 mph 6.0 mph 89% 0.00 in
09:59 78.2 °F 74.7 °F 30.12 in ESE 3.0 mph 6.0 mph 89% 0.00 in
10:04 78.0 °F 74.2 °F 30.12 in SE 6.0 mph 6.0 mph 88% 0.00 in
10:09 77.8 °F 74.0 °F 30.13 in SE 4.0 mph 6.0 mph 88% 0.00 in
10:14 77.9 °F 74.4 °F 30.13 in SE 4.0 mph 6.0 mph 89% 0.00 in
10:19 78.3 °F 74.8 °F 30.13 in SE 6.0 mph 6.0 mph 89% 0.00 in
10:24 78.8 °F 74.9 °F 30.12 in SSE 5.0 mph 7.0 mph 88% 0.00 in
10:29 79.2 °F 75.0 °F 30.12 in SE 5.0 mph 7.0 mph 87% 0.00 in
10:34 79.1 °F 74.9 °F 30.12 in SE 4.0 mph 6.0 mph 87% 0.00 in
10:39 79.3 °F 75.1 °F 30.12 in SE 4.0 mph 6.0 mph 87% 0.00 in
10:44 79.2 °F 74.7 °F 30.12 in South 3.0 mph 7.0 mph 86% 0.00 in
10:49 79.4 °F 75.5 °F 30.12 in SE 5.0 mph 5.0 mph 88% 0.00 in
10:54 79.6 °F 75.1 °F 30.12 in SE 3.0 mph 6.0 mph 86% 0.00 in
10:59 79.9 °F 74.6 °F 30.12 in SSE 5.0 mph 6.0 mph 84% 0.00 in
11:04 80.5 °F 74.5 °F 30.12 in SSE 2.0 mph 5.0 mph 82% 0.00 in
11:09 81.3 °F 74.9 °F 30.12 in SSW 5.0 mph 8.0 mph 81% 0.00 in
11:14 81.8 °F 75.8 °F 30.12 in WSW 4.0 mph 5.0 mph 82% 0.00 in
11:19 81.8 °F 74.7 °F 30.12 in SSW 4.0 mph 6.0 mph 79% 0.00 in
11:24 81.7 °F 74.9 °F 30.12 in South 8.0 mph 8.0 mph 80% 0.00 in
11:29 81.9 °F 74.4 °F 30.12 in SSE 5.0 mph 10.0 mph 78% 0.00 in
11:34 82.2 °F 74.7 °F 30.12 in SSW 7.0 mph 8.0 mph 78% 0.00 in
11:39 82.5 °F 74.2 °F 30.12 in SSE 5.0 mph 8.0 mph 76% 0.00 in
11:44 82.9 °F 74.9 °F 30.12 in SSE 5.0 mph 9.0 mph 77% 0.00 in
11:49 82.5 °F 74.9 °F 30.12 in SE 6.0 mph 8.0 mph 78% 0.00 in
11:54 82.2 °F 74.3 °F 30.12 in South 4.0 mph 7.0 mph 77% 0.00 in
11:59 82.7 °F 75.2 °F 30.12 in South 4.0 mph 7.0 mph 78% 0.00 in
12:04 83.1 °F 74.0 °F 30.12 in East 6.0 mph 9.0 mph 74% 0.00 in
12:09 83.0 °F 74.7 °F 30.12 in SE 7.0 mph 9.0 mph 76% 0.00 in
12:14 83.0 °F 74.7 °F 30.12 in SE 7.0 mph 8.0 mph 76% 0.00 in
12:19 83.2 °F 74.5 °F 30.12 in SE 4.0 mph 11.0 mph 75% 0.00 in
12:24 83.2 °F 73.7 °F 30.12 in SSE 2.0 mph 6.0 mph 73% 0.00 in
12:29 83.7 °F 74.5 °F 30.12 in SSE 3.0 mph 9.0 mph 74% 0.00 in
12:34 84.2 °F 74.2 °F 30.12 in SE 3.0 mph 9.0 mph 72% 0.00 in
12:39 84.5 °F 73.7 °F 30.11 in SW 8.0 mph 8.0 mph 70% 0.00 in
12:44 84.6 °F 74.6 °F 30.11 in SE 4.0 mph 9.0 mph 72% 0.00 in
12:49 85.1 °F 73.4 °F 30.12 in SE 9.0 mph 13.0 mph 68% 0.00 in
12:54 85.2 °F 73.9 °F 30.11 in SSW 7.0 mph 9.0 mph 69% 0.00 in
12:59 85.0 °F 72.8 °F 30.11 in SW 3.0 mph 8.0 mph 67% 0.00 in
13:04 85.0 °F 72.8 °F 30.11 in SW 7.0 mph 8.0 mph 67% 0.00 in
13:09 85.3 °F 72.7 °F 30.11 in South 3.0 mph 7.0 mph 66% 0.00 in
13:14 85.4 °F 74.1 °F 30.11 in SSW 4.0 mph 7.0 mph 69% 0.00 in
13:19 85.4 °F 72.8 °F 30.11 in SE 5.0 mph 10.0 mph 66% 0.00 in
13:25 85.5 °F 72.8 °F 30.10 in SE 7.0 mph 10.0 mph 66% 0.00 in
13:30 85.5 °F 73.7 °F 30.10 in SSW 6.0 mph 8.0 mph 68% 0.00 in
13:35 85.6 °F 73.8 °F 30.10 in South 5.0 mph 9.0 mph 68% 0.00 in
13:40 85.4 °F 73.2 °F 30.10 in SW 5.0 mph 11.0 mph 67% 0.00 in
13:45 85.7 °F 72.6 °F 30.10 in SSE 6.0 mph 11.0 mph 65% 0.00 in
13:50 85.9 °F 72.8 °F 30.10 in SE 5.0 mph 9.0 mph 65% 0.00 in
13:55 86.2 °F 72.1 °F 30.09 in SSW 8.0 mph 9.0 mph 63% 0.00 in
14:00 86.4 °F 73.2 °F 30.09 in South 5.0 mph 9.0 mph 65% 0.00 in
14:05 86.4 °F 71.8 °F 30.09 in SW 4.0 mph 7.0 mph 62% 0.00 in
14:10 86.4 °F 70.9 °F 30.09 in SE 8.0 mph 11.0 mph 60% 0.00 in
14:15 86.5 °F 72.4 °F 30.08 in SE 6.0 mph 8.0 mph 63% 0.00 in
14:20 86.2 °F 72.1 °F 30.09 in South 4.0 mph 9.0 mph 63% 0.00 in
14:25 86.5 °F 71.9 °F 30.08 in ESE 11.0 mph 11.0 mph 62% 0.00 in
14:30 86.5 °F 71.0 °F 30.08 in SE 6.0 mph 11.0 mph 60% 0.00 in
14:35 86.4 °F 71.8 °F 30.07 in SSE 7.0 mph 8.0 mph 62% 0.00 in
14:40 86.3 °F 72.7 °F 30.07 in SE 10.0 mph 12.0 mph 64% 0.00 in
14:45 86.1 °F 72.0 °F 30.07 in SE 4.0 mph 11.0 mph 63% 0.00 in
14:50 85.8 °F 71.3 °F 30.06 in SSE 4.0 mph 8.0 mph 62% 0.00 in
14:55 86.6 °F 72.5 °F 30.06 in SSE 7.0 mph 8.0 mph 63% 0.00 in
15:00 86.9 °F 73.3 °F 30.06 in SSE 10.0 mph 10.0 mph 64% 0.00 in
15:05 87.2 °F 73.1 °F 30.06 in East 1.0 mph 6.0 mph 63% 0.00 in
15:10 87.5 °F 72.9 °F 30.06 in SSE 3.0 mph 9.0 mph 62% 0.00 in
15:15 87.9 °F 71.8 °F 30.05 in SSW 2.0 mph 7.0 mph 59% 0.00 in
15:20 87.8 °F 71.2 °F 30.05 in SSW 6.0 mph 9.0 mph 58% 0.00 in
15:25 87.9 °F 71.3 °F 30.05 in SE 3.0 mph 8.0 mph 58% 0.00 in
15:30 88.3 °F 71.2 °F 30.05 in SSW 4.0 mph 7.0 mph 57% 0.00 in
15:35 87.9 °F 71.3 °F 30.05 in South 6.0 mph 8.0 mph 58% 0.00 in
15:40 87.6 °F 71.5 °F 30.05 in ESE 2.0 mph 7.0 mph 59% 0.00 in
15:45 87.1 °F 71.5 °F 30.04 in SE 3.0 mph 8.0 mph 60% 0.00 in
15:50 87.2 °F 71.6 °F 30.04 in SW 3.0 mph 9.0 mph 60% 0.00 in
15:55 87.4 °F 72.3 °F 30.04 in SE 4.0 mph 10.0 mph 61% 0.00 in
16:00 87.2 °F 71.6 °F 30.04 in SE 7.0 mph 10.0 mph 60% 0.00 in
16:06 87.3 °F 71.7 °F 30.04 in SE 7.0 mph 8.0 mph 60% 0.00 in
16:11 87.2 °F 70.6 °F 30.03 in WSW 5.0 mph 9.0 mph 58% 0.00 in
16:16 87.1 °F 72.5 °F 30.03 in SW 4.0 mph 5.0 mph 62% 0.00 in
16:21 87.6 °F 71.0 °F 30.03 in ESE 3.0 mph 5.0 mph 58% 0.00 in
16:26 88.1 °F 71.0 °F 30.03 in SSW 6.0 mph 14.0 mph 57% 0.00 in
16:31 88.5 °F 70.8 °F 30.02 in SSE 5.0 mph 9.0 mph 56% 0.00 in
16:36 88.5 °F 70.8 °F 30.02 in SSE 9.0 mph 10.0 mph 56% 0.00 in
16:41 88.7 °F 71.0 °F 30.02 in South 7.0 mph 7.0 mph 56% 0.00 in
16:46 88.8 °F 71.6 °F 30.02 in SW 1.0 mph 7.0 mph 57% 0.00 in
16:51 88.8 °F 71.1 °F 30.02 in SSE 4.0 mph 10.0 mph 56% 0.00 in
16:56 88.8 °F 71.1 °F 30.02 in WSW 4.0 mph 7.0 mph 56% 0.00 in
17:01 88.9 °F 70.7 °F 30.02 in SW 5.0 mph 6.0 mph 55% 0.00 in
17:06 89.0 °F 70.8 °F 30.02 in SSE 7.0 mph 7.0 mph 55% 0.00 in
17:11 88.4 °F 71.8 °F 30.02 in SE 6.0 mph 6.0 mph 58% 0.00 in
17:16 87.8 °F 71.2 °F 30.02 in SSE 6.0 mph 6.0 mph 58% 0.00 in
17:21 88.1 °F 70.4 °F 30.02 in SSE 3.0 mph 7.0 mph 56% 0.00 in
17:26 88.2 °F 71.1 °F 30.02 in SW 2.0 mph 5.0 mph 57% 0.00 in
17:31 88.4 °F 71.8 °F 30.02 in SSE 7.0 mph 11.0 mph 58% 0.00 in
17:36 88.5 °F 71.3 °F 30.02 in ESE 3.0 mph 8.0 mph 57% 0.00 in
17:41 88.9 °F 70.7 °F 30.02 in SSE 5.0 mph 8.0 mph 55% 0.00 in
17:46 89.3 °F 71.6 °F 30.02 in SSE 4.0 mph 9.0 mph 56% 0.00 in
17:51 89.5 °F 71.7 °F 30.01 in SSE 8.0 mph 10.0 mph 56% 0.00 in
17:56 89.4 °F 73.2 °F 30.01 in SE 7.0 mph 8.0 mph 59% 0.00 in
18:01 89.3 °F 72.1 °F 30.01 in SE 4.0 mph 8.0 mph 57% 0.00 in
18:06 89.3 °F 72.1 °F 30.01 in SSE 4.0 mph 6.0 mph 57% 0.00 in
18:11 89.5 °F 70.1 °F 30.01 in SW 7.0 mph 7.0 mph 53% 0.00 in
18:16 89.7 °F 70.9 °F 30.01 in SW 6.0 mph 7.0 mph 54% 0.00 in
18:21 89.2 °F 70.4 °F 30.01 in SW 4.0 mph 7.0 mph 54% 0.00 in
18:26 89.2 °F 72.0 °F 30.00 in SW 3.0 mph 5.0 mph 57% 0.00 in
18:31 89.3 °F 70.5 °F 30.00 in SW 2.0 mph 4.0 mph 54% 0.00 in
18:36 89.5 °F 70.1 °F 30.00 in SSW 2.0 mph 8.0 mph 53% 0.00 in
18:41 89.3 °F 71.6 °F 30.00 in SE 3.0 mph 9.0 mph 56% 0.00 in
18:46 89.5 °F 70.7 °F 30.00 in SSE 2.0 mph 4.0 mph 54% 0.00 in
18:51 89.7 °F 69.8 °F 30.00 in SSE 7.0 mph 7.0 mph 52% 0.00 in
18:56 89.7 °F 70.3 °F 30.00 in SSW 2.0 mph 5.0 mph 53% 0.00 in
19:01 89.6 °F 69.7 °F 30.00 in SSW 3.0 mph 6.0 mph 52% 0.00 in
19:06 89.6 °F 70.2 °F 30.00 in SW 4.0 mph 4.0 mph 53% 0.00 in
19:11 89.7 °F 71.4 °F 30.00 in SSW 3.0 mph 5.0 mph 55% 0.00 in
19:16 89.9 °F 72.1 °F 29.99 in SW 3.0 mph 3.0 mph 56% 0.00 in
19:21 90.0 °F 70.0 °F 30.00 in SSW 1.0 mph 3.0 mph 52% 0.00 in
19:26 89.7 °F 70.3 °F 29.99 in SW 5.0 mph 5.0 mph 53% 0.00 in
19:31 89.3 °F 70.5 °F 29.99 in SSE 2.0 mph 3.0 mph 54% 0.00 in
19:36 89.5 °F 71.2 °F 30.00 in Calm   3.0 mph 55% 0.00 in
19:41 89.5 °F 70.7 °F 30.00 in South 4.0 mph 5.0 mph 54% 0.00 in
19:46 89.3 °F 71.0 °F 30.00 in South 1.0 mph 4.0 mph 55% 0.00 in
19:51 89.4 °F 71.1 °F 30.00 in South 3.0 mph 3.0 mph 55% 0.00 in
19:56 89.3 °F 70.5 °F 30.00 in SE 2.0 mph 3.0 mph 54% 0.00 in
20:01 89.5 °F 71.2 °F 30.00 in SSW 1.0 mph 2.0 mph 55% 0.00 in
20:06 89.3 °F 71.6 °F 30.00 in WSW 1.0 mph 2.0 mph 56% 0.00 in
20:12 89.4 °F 71.1 °F 30.00 in Calm     55% 0.00 in
20:17 89.8 °F 70.9 °F 30.00 in SW 1.0 mph 1.0 mph 54% 0.00 in
20:22 89.5 °F 71.2 °F 30.00 in Calm   1.0 mph 55% 0.00 in
20:27 89.9 °F 72.6 °F 30.01 in Calm     57% 0.00 in
20:32 89.6 °F 72.4 °F 30.01 in Calm     57% 0.00 in
20:37 88.7 °F 72.5 °F 30.01 in Calm     59% 0.00 in
20:42 87.4 °F 72.8 °F 30.01 in Calm     62% 0.00 in
20:47 85.9 °F 72.3 °F 30.01 in Calm     64% 0.00 in
20:52 84.7 °F 72.5 °F 30.01 in Calm     67% 0.00 in
20:57 83.9 °F 72.7 °F 30.01 in Calm   1.0 mph 69% 0.00 in
21:02 83.2 °F 72.4 °F 30.02 in Calm     70% 0.00 in
21:07 82.6 °F 71.8 °F 30.02 in Calm     70% 0.00 in
21:12 82.3 °F 72.0 °F 30.02 in Calm     71% 0.00 in
21:17 82.0 °F 72.5 °F 30.02 in Calm   1.0 mph 73% 0.00 in
21:22 81.5 °F 72.4 °F 30.03 in Calm     74% 0.00 in
21:27 81.0 °F 71.9 °F 30.03 in Calm     74% 0.00 in
21:32 80.2 °F 71.6 °F 30.03 in Calm     75% 0.00 in
21:37 79.7 °F 71.9 °F 30.03 in East 1.0 mph 1.0 mph 77% 0.00 in
21:42 79.8 °F 71.9 °F 30.03 in Calm   1.0 mph 77% 0.00 in
21:47 80.0 °F 71.8 °F 30.03 in Calm     76% 0.00 in
21:52 79.6 °F 71.8 °F 30.03 in East 1.0 mph 1.0 mph 77% 0.00 in
21:57 79.2 °F 71.4 °F 30.03 in Calm   1.0 mph 77% 0.00 in
22:02 78.9 °F 71.5 °F 30.03 in Calm     78% 0.00 in
22:07 78.8 °F 71.0 °F 30.03 in Calm   1.0 mph 77% 0.00 in
22:12 78.7 °F 72.0 °F 30.03 in ENE 1.0 mph 1.0 mph 80% 0.00 in
22:17 78.0 °F 72.1 °F 30.03 in Calm   1.0 mph 82% 0.00 in
22:22 77.6 °F 71.3 °F 30.03 in Calm   1.0 mph 81% 0.00 in
22:27 77.2 °F 72.0 °F 30.03 in Calm     84% 0.00 in
22:32 77.0 °F 72.2 °F 30.03 in Calm     85% 0.00 in
22:37 76.8 °F 72.3 °F 30.03 in ENE 1.0 mph 1.0 mph 86% 0.00 in
22:42 76.9 °F 72.1 °F 30.03 in ENE 1.0 mph 2.0 mph 85% 0.00 in
22:47 76.7 °F 71.5 °F 30.04 in Calm     84% 0.00 in
22:52 76.6 °F 71.8 °F 30.04 in ENE 1.0 mph 2.0 mph 85% 0.00 in
22:57 76.7 °F 71.9 °F 30.03 in Calm   1.0 mph 85% 0.00 in
23:02 76.4 °F 71.6 °F 30.04 in Calm     85% 0.00 in
23:07 76.1 °F 71.3 °F 30.04 in Calm     85% 0.00 in
23:12 75.8 °F 71.7 °F 30.04 in Calm     87% 0.00 in
23:17 75.6 °F 71.8 °F 30.04 in NE 1.0 mph 1.0 mph 88% 0.00 in
23:22 75.4 °F 71.9 °F 30.04 in NNW 1.0 mph 2.0 mph 89% 0.00 in
23:27 75.1 °F 72.0 °F 30.04 in Calm   1.0 mph 90% 0.00 in
23:32 74.8 °F 71.7 °F 30.04 in Calm   1.0 mph 90% 0.00 in
23:37 74.7 °F 71.6 °F 30.04 in Calm     90% 0.00 in
23:42 74.6 °F 71.8 °F 30.04 in Calm     91% 0.00 in
23:47 74.6 °F 71.8 °F 30.04 in Calm     91% 0.00 in
23:52 74.4 °F 71.6 °F 30.04 in Calm     91% 0.00 in
23:57 74.4 °F 71.6 °F 30.03 in Calm   1.0 mph 91% 0.00 in
Compliments of Weather Underground